Time;durP1;ratioP1;P1;durP2;ratioP2;P2;SDS_P1;SDS_P2;PMS_P1;PMS_P2;Temp;Humidity;BMP_temperature;BMP_pressure;BME280_temperature;BME280_humidity;BME280_pressure;Samples;Min_cycle;Max_cycle;Signal;HPM_P1;HPM_P2
2022/03/24 00:01:48;;;;;;;;;37.25;32.50;;;;;16.58;27.72;102357.34;5015525;28;45468;-74
2022/03/24 00:04:22;;;;;;;;;36.25;33.00;;;;;16.54;27.83;102348.56;5017052;28;45442;-74
2022/03/24 00:06:48;;;;;;;;;41.50;32.50;;;;;16.59;27.68;102355.63;5014358;28;45711;-75
2022/03/24 00:09:13;;;;;;;;;38.50;34.25;;;;;16.59;27.98;102351.22;5014369;28;45549;-74
2022/03/24 00:11:40;;;;;;;;;36.00;32.25;;;;;16.47;28.07;102332.66;5015704;28;45477;-74
2022/03/24 00:14:06;;;;;;;;;40.00;32.50;;;;;16.47;27.96;102333.53;5015716;28;45501;-76
2022/03/24 00:16:32;;;;;;;;;43.00;33.25;;;;;16.57;27.93;102346.78;5015230;28;45880;-74
2022/03/24 00:18:59;;;;;;;;;39.25;33.25;;;;;16.60;28.16;102346.78;5013686;28;45567;-73
2022/03/24 00:21:24;;;;;;;;;38.00;30.00;;;;;16.53;28.33;102340.59;5015176;28;45502;-74
2022/03/24 00:23:50;;;;;;;;;40.25;33.50;;;;;16.60;28.24;102346.78;5017575;28;45516;-72
2022/03/24 00:26:16;;;;;;;;;41.75;34.75;;;;;16.50;28.49;102336.19;5017161;28;45687;-76
2022/03/24 00:28:42;;;;;;;;;37.25;32.50;;;;;16.58;28.66;102359.13;5017668;28;45324;-74
2022/03/24 00:31:09;;;;;;;;;35.25;34.00;;;;;16.57;28.53;102345.03;5017522;28;45568;-73
2022/03/24 00:33:36;;;;;;;;;40.75;33.00;;;;;16.56;28.64;102350.31;5017570;28;45547;-76
2022/03/24 00:36:03;;;;;;;;;40.25;33.25;;;;;16.54;28.71;102351.19;5016840;28;45390;-73
2022/03/24 00:38:29;;;;;;;;;36.00;32.25;;;;;16.47;28.79;102338.84;5016953;28;45457;-71
2022/03/24 00:40:56;;;;;;;;;43.00;32.50;;;;;16.32;28.58;102317.59;5017417;28;45347;-73
2022/03/24 00:43:22;;;;;;;;;44.00;35.50;;;;;16.25;28.70;102298.22;5016019;28;45362;-75
2022/03/24 00:45:48;;;;;;;;;36.75;32.75;;;;;16.29;28.83;102322.91;5017255;28;45522;-73
2022/03/24 00:48:14;;;;;;;;;39.75;34.25;;;;;16.39;28.69;102337.03;5017421;28;45509;-73
2022/03/24 00:50:40;;;;;;;;;39.00;34.50;;;;;16.35;29.06;102337.88;5016799;28;45354;-73
2022/03/24 00:53:05;;;;;;;;;41.75;34.50;;;;;16.30;28.89;102329.94;5017876;28;45395;-72
2022/03/24 00:55:31;;;;;;;;;38.00;34.25;;;;;16.26;28.97;102325.53;5018825;28;46226;-73
2022/03/24 00:57:57;;;;;;;;;41.75;36.50;;;;;16.25;29.19;102329.94;5018872;28;45455;-73
2022/03/24 01:00:25;;;;;;;;;31.25;28.00;;;;;16.24;29.47;102336.09;5017294;28;45471;-74
2022/03/24 01:02:52;;;;;;;;;46.00;35.75;;;;;16.23;29.52;102333.44;5017350;28;45256;-75
2022/03/24 01:05:19;;;;;;;;;36.50;31.75;;;;;16.18;29.18;102324.59;5016813;28;46428;-70
2022/03/24 01:07:46;;;;;;;;;38.50;33.25;;;;;16.20;29.25;102331.66;5016722;28;45299;-74
2022/03/24 01:10:15;;;;;;;;;35.75;33.00;;;;;16.16;29.20;102324.63;5016403;28;45458;-73
2022/03/24 01:12:42;;;;;;;;;38.00;31.50;;;;;16.14;29.71;102323.72;5016783;28;45447;-73
2022/03/24 01:15:09;;;;;;;;;40.00;34.50;;;;;16.11;29.46;102321.03;5016497;28;46123;-73
2022/03/24 01:17:36;;;;;;;;;40.00;32.50;;;;;16.13;29.71;102326.34;5016707;28;45463;-72
2022/03/24 01:20:03;;;;;;;;;41.25;33.00;;;;;16.08;29.34;102316.63;5018547;28;45406;-74
2022/03/24 01:22:28;;;;;;;;;32.75;31.50;;;;;16.11;29.30;102321.97;5020646;28;45361;-73
2022/03/24 01:24:56;;;;;;;;;35.50;31.25;;;;;15.98;29.42;102300.75;5019515;28;45493;-71
2022/03/24 01:27:26;;;;;;;;;38.50;32.50;;;;;16.09;29.43;102323.72;5019882;28;45331;-71
2022/03/24 01:29:59;;;;;;;;;35.25;31.50;;;;;16.06;29.06;102317.50;5020224;28;45423;-71
2022/03/24 01:32:26;;;;;;;;;36.00;31.75;;;;;15.99;29.63;102308.69;5019815;28;45281;-72
2022/03/24 01:34:52;;;;;;;;;39.25;33.25;;;;;16.00;29.69;102312.22;5019550;28;46067;-71
2022/03/24 01:37:25;;;;;;;;;46.50;33.25;;;;;16.01;29.64;102325.41;5019585;28;45350;-72
2022/03/24 01:39:51;;;;;;;;;37.75;30.50;;;;;16.00;29.58;102318.38;5018565;28;45590;-71
2022/03/24 01:42:18;;;;;;;;;42.75;33.50;;;;;15.92;29.69;102304.22;5020113;28;45392;-72
2022/03/24 01:44:48;;;;;;;;;47.25;34.75;;;;;15.90;29.68;102316.56;5034887;28;45352;-72
2022/03/24 01:47:15;;;;;;;;;36.25;32.00;;;;;15.80;29.60;102296.25;5034783;28;45520;-69
2022/03/24 01:49:44;;;;;;;;;46.25;35.75;;;;;15.88;29.69;102305.09;5019675;28;45446;-73
2022/03/24 01:52:13;;;;;;;;;45.25;32.75;;;;;15.88;29.55;102305.09;5019743;28;45355;-70
2022/03/24 01:54:45;;;;;;;;;28.25;24.50;;;;;15.86;29.99;102306.84;5018805;28;45577;-72
2022/03/24 01:57:12;;;;;;;;;38.75;32.00;;;;;15.88;29.88;102303.34;5019785;28;45545;-73
2022/03/24 01:59:40;;;;;;;;;36.50;32.75;;;;;15.84;30.28;102305.97;5019744;28;45417;-69
2022/03/24 02:02:07;;;;;;;;;35.00;32.25;;;;;15.66;29.57;102275.00;5018117;28;45562;-70
2022/03/24 02:04:43;;;;;;;;;35.50;32.75;;;;;15.79;29.88;102300.66;5019815;28;45446;-69
2022/03/24 02:07:13;;;;;;;;;33.25;26.25;;;;;15.39;30.17;102241.41;5019474;28;45405;-70
2022/03/24 02:09:43;;;;;;;;;34.00;31.00;;;;;15.67;30.21;102285.59;5020243;28;45482;-71
2022/03/24 02:12:11;;;;;;;;;40.25;33.50;;;;;15.68;30.23;102294.38;5019538;28;45541;-74
2022/03/24 02:14:38;;;;;;;;;37.00;32.75;;;;;15.58;29.97;102287.28;5019388;28;45644;-72
2022/03/24 02:20:06;;;;;;;;;44.25;33.25;;;;;15.52;30.56;102292.53;5019890;28;45311;-72
2022/03/24 02:23:03;;;;;;;;;33.50;29.75;;;;;15.53;30.29;102297.81;5020533;28;45568;-74
2022/03/24 02:25:32;;;;;;;;;36.25;32.00;;;;;15.37;30.51;102280.97;5016937;28;46104;-74
2022/03/24 02:28:03;;;;;;;;;41.75;34.00;;;;;15.40;30.37;102280.13;5017484;28;45434;-73
2022/03/24 02:30:29;;;;;;;;;42.00;32.25;;;;;15.50;30.50;102305.72;5018457;28;45473;-74
2022/03/24 02:32:56;;;;;;;;;35.25;30.25;;;;;15.51;30.26;102301.34;5018854;28;45725;-72
2022/03/24 02:35:22;;;;;;;;;38.75;29.50;;;;;15.46;30.69;102291.59;5018657;28;45531;-72
2022/03/24 02:37:47;;;;;;;;;37.25;33.00;;;;;15.40;30.55;102281.03;5019034;28;45501;-74
2022/03/24 02:40:14;;;;;;;;;40.25;32.75;;;;;15.44;30.30;102288.06;5017884;28;45668;-74
2022/03/24 02:42:40;;;;;;;;;34.75;31.00;;;;;15.42;30.83;102284.56;5019159;28;45629;-73
2022/03/24 02:45:08;;;;;;;;;35.75;32.50;;;;;15.47;30.81;102301.31;5019004;28;46091;-73
2022/03/24 02:47:34;;;;;;;;;38.00;33.25;;;;;15.45;30.62;102299.53;5018730;28;45540;-73
2022/03/24 02:50:00;;;;;;;;;40.50;34.25;;;;;15.41;30.17;102292.47;5018251;28;45366;-73
2022/03/24 02:52:27;;;;;;;;;36.75;31.00;;;;;15.40;30.68;102296.88;5018891;28;45402;-73
2022/03/24 02:54:53;;;;;;;;;45.75;34.25;;;;;15.38;30.85;102295.09;5017539;28;47731;-75
2022/03/24 02:57:18;;;;;;;;;35.00;31.00;;;;;15.30;30.57;102276.53;5018698;28;45346;-73
2022/03/24 02:59:48;;;;;;;;;37.50;32.00;;;;;15.20;30.58;102262.41;5019031;28;45281;-74
2022/03/24 03:02:15;;;;;;;;;37.25;31.00;;;;;15.40;31.13;102288.94;5017482;28;45466;-73
2022/03/24 03:04:45;;;;;;;;;43.25;34.00;;;;;15.30;30.50;102283.56;5018548;28;46146;-72
2022/03/24 03:07:11;;;;;;;;;41.00;30.75;;;;;15.15;31.00;102282.59;5018398;28;45376;-72
2022/03/24 03:09:39;;;;;;;;;35.75;31.75;;;;;15.13;31.12;102284.34;5019087;28;45434;-72
2022/03/24 03:12:06;;;;;;;;;35.50;33.25;;;;;15.18;30.88;102293.16;5018832;28;45512;-74
2022/03/24 03:14:32;;;;;;;;;41.50;32.75;;;;;15.20;31.28;102299.34;5018436;28;46210;-72
2022/03/24 03:16:59;;;;;;;;;36.75;33.50;;;;;15.14;31.23;102290.50;5017230;28;45418;-74
2022/03/24 03:19:26;;;;;;;;;40.00;32.50;;;;;15.14;30.95;102278.19;5018470;28;45465;-73
2022/03/24 03:21:52;;;;;;;;;46.75;34.00;;;;;15.19;31.29;102289.69;5018774;28;45395;-73
2022/03/24 03:24:21;;;;;;;;;37.25;33.50;;;;;15.17;30.98;102299.34;5018257;28;45552;-73
2022/03/24 03:26:47;;;;;;;;;38.75;31.50;;;;;15.12;31.09;102303.69;5018392;28;45427;-73
2022/03/24 03:29:13;;;;;;;;;41.75;33.25;;;;;15.11;31.31;102308.94;5018224;28;45364;-73
2022/03/24 03:31:39;;;;;;;;;42.75;33.00;;;;;14.91;31.71;102278.00;5018483;28;45455;-71
2022/03/24 03:34:07;;;;;;;;;38.50;32.50;;;;;14.89;31.71;102281.50;5018392;28;46333;-74
2022/03/24 03:36:33;;;;;;;;;41.25;33.00;;;;;14.89;31.84;102290.28;5018243;28;45366;-74
2022/03/24 03:38:59;;;;;;;;;43.50;33.75;;;;;14.92;31.73;102300.00;5018441;28;45430;-74
2022/03/24 03:41:26;;;;;;;;;42.25;33.75;;;;;14.92;31.72;102306.13;5018233;28;45355;-73
2022/03/24 03:43:51;;;;;;;;;41.00;33.00;;;;;14.91;32.21;102303.50;5017807;28;46068;-72
2022/03/24 03:46:17;;;;;;;;;40.75;34.50;;;;;14.84;31.66;102295.53;5017459;28;45561;-73
2022/03/24 03:48:43;;;;;;;;;31.50;30.50;;;;;14.77;31.57;102284.91;5017452;28;46050;-73
2022/03/24 03:51:09;;;;;;;;;41.50;34.50;;;;;14.77;32.00;102284.91;5018367;28;45695;-74
2022/03/24 03:53:36;;;;;;;;;38.00;32.00;;;;;14.85;32.19;102301.69;5018054;28;46147;-73
2022/03/24 03:56:03;;;;;;;;;43.00;34.25;;;;;14.80;32.27;102284.94;5018119;28;45417;-74
2022/03/24 03:58:29;;;;;;;;;48.75;35.00;;;;;14.84;32.17;102302.56;5017677;28;45961;-74
2022/03/24 04:00:57;;;;;;;;;38.25;33.00;;;;;14.83;31.98;102298.16;5017510;28;45395;-73
2022/03/24 04:03:28;;;;;;;;;41.75;34.00;;;;;14.66;32.07;102276.88;5017269;28;46121;-74
2022/03/24 04:05:59;;;;;;;;;38.25;34.00;;;;;14.74;32.21;102283.13;5017145;28;45552;-74
2022/03/24 04:08:27;;;;;;;;;37.25;31.00;;;;;14.67;32.28;102275.16;5017519;28;45569;-75
2022/03/24 04:10:54;;;;;;;;;42.75;33.25;;;;;14.81;31.92;102297.28;5016357;28;45339;-69
2022/03/24 04:13:21;;;;;;;;;37.50;29.25;;;;;14.62;32.44;102269.84;5017361;28;46165;-69
2022/03/24 04:15:48;;;;;;;;;37.00;32.25;;;;;14.71;32.10;102280.47;5017025;28;45366;-71
2022/03/24 04:18:14;;;;;;;;;43.50;33.75;;;;;14.61;32.10;102268.06;5017192;28;45181;-70
2022/03/24 04:20:40;;;;;;;;;44.50;34.00;;;;;14.69;32.53;102282.22;5017988;28;45265;-70
2022/03/24 04:23:07;;;;;;;;;39.50;33.25;;;;;14.76;32.74;102293.69;5017432;28;46464;-70
2022/03/24 04:25:34;;;;;;;;;39.25;31.00;;;;;14.72;32.58;102298.06;5017492;28;45331;-70
2022/03/24 04:28:01;;;;;;;;;35.75;32.75;;;;;14.62;32.72;102280.38;5017443;28;45465;-71
2022/03/24 04:31:56;;;;;;;;;49.00;35.50;;;;;14.69;32.70;102292.75;5006696;27;45291;-72
2022/03/24 04:34:21;;;;;;;;;50.50;36.50;;;;;14.60;32.67;102271.56;4990433;28;45446;-72
2022/03/24 04:36:47;;;;;;;;;40.25;34.00;;;;;14.63;32.75;102276.88;4990668;28;45373;-72
2022/03/24 04:39:13;;;;;;;;;38.75;31.25;;;;;14.58;33.19;102276.81;4990844;27;45421;-71
2022/03/24 04:41:41;;;;;;;;;43.00;34.50;;;;;14.60;32.87;102300.56;4990755;28;45441;-71
2022/03/24 04:44:07;;;;;;;;;44.00;33.50;;;;;14.57;32.45;102285.59;4990488;28;45570;-72
2022/03/24 04:46:32;;;;;;;;;36.75;32.00;;;;;14.49;32.49;102284.59;4991463;28;45466;-71
2022/03/24 04:48:58;;;;;;;;;29.50;25.50;;;;;14.37;32.67;102273.94;4992222;28;45349;-73
2022/03/24 04:51:23;;;;;;;;;41.25;33.25;;;;;14.46;32.73;102288.97;4991026;28;46458;-72
2022/03/24 04:53:49;;;;;;;;;44.75;34.75;;;;;14.34;32.77;102268.63;4991491;27;45342;-75
2022/03/24 04:56:16;;;;;;;;;37.75;32.00;;;;;14.41;32.75;102297.69;4994095;27;45308;-72
2022/03/24 04:58:42;;;;;;;;;43.25;34.75;;;;;14.34;33.20;102293.22;4994931;28;45514;-71
2022/03/24 05:01:07;;;;;;;;;38.50;32.75;;;;;14.24;32.89;102283.47;4993499;27;45592;-72
2022/03/24 05:03:33;;;;;;;;;49.00;33.25;;;;;14.27;32.67;102299.28;4993288;28;45363;-71
2022/03/24 05:05:59;;;;;;;;;36.00;30.25;;;;;14.25;32.90;102294.88;4992588;27;45496;-68
2022/03/24 05:08:25;;;;;;;;;38.50;33.00;;;;;14.19;32.95;102287.78;4993241;27;45181;-69
2022/03/24 05:10:56;;;;;;;;;43.00;27.25;;;;;14.18;33.02;102299.19;4992504;27;45404;-70
2022/03/24 05:13:22;;;;;;;;;31.25;28.00;;;;;14.13;32.98;102285.06;4993293;27;45424;-71
2022/03/24 05:15:47;;;;;;;;;39.25;29.50;;;;;14.05;33.10;102277.09;4993062;28;45479;-70
2022/03/24 05:18:13;;;;;;;;;42.75;31.75;;;;;14.15;32.63;102286.84;4993980;28;45491;-72
2022/03/24 05:20:38;;;;;;;;;39.75;29.25;;;;;14.12;32.99;102278.06;4993203;28;45266;-71
2022/03/24 05:23:05;;;;;;;;;36.50;28.00;;;;;14.14;32.57;102298.28;4992491;27;45294;-69
2022/03/24 05:25:31;;;;;;;;;39.25;30.75;;;;;14.07;32.85;102278.00;4992605;27;45283;-68
2022/03/24 05:28:07;;;;;;;;;32.50;30.00;;;;;14.18;33.08;102297.44;4992925;27;45418;-69
2022/03/24 05:30:33;;;;;;;;;30.00;24.00;;;;;14.08;32.81;102277.13;5000955;27;45620;-73
2022/03/24 05:32:59;;;;;;;;;40.00;32.00;;;;;14.19;32.70;102300.97;5013184;28;45300;-71
2022/03/24 05:35:35;;;;;;;;;32.00;30.50;;;;;13.98;32.89;102273.47;5013064;27;45314;-69
2022/03/24 05:38:02;;;;;;;;;37.50;32.25;;;;;14.11;33.14;102303.50;5010735;27;45575;-70
2022/03/24 05:40:27;;;;;;;;;32.75;30.75;;;;;13.97;33.11;102278.72;5012093;27;46010;-70
2022/03/24 05:42:53;;;;;;;;;39.50;33.75;;;;;14.10;32.71;102292.94;5001026;27;45264;-68
2022/03/24 05:45:19;;;;;;;;;33.75;30.25;;;;;14.10;32.82;102303.50;5000307;27;45200;-69
2022/03/24 05:47:44;;;;;;;;;36.75;32.50;;;;;14.08;32.64;102299.94;4999722;27;45476;-74
2022/03/24 05:50:10;;;;;;;;;36.25;29.50;;;;;14.09;33.41;102299.94;4997702;27;46416;-70
2022/03/24 05:52:36;;;;;;;;;40.50;32.25;;;;;14.07;33.20;102299.06;4997320;27;45461;-73
2022/03/24 05:55:02;;;;;;;;;36.50;30.75;;;;;13.95;33.10;102281.34;4996760;27;45401;-73
2022/03/24 05:57:28;;;;;;;;;30.75;24.00;;;;;14.13;33.76;102307.03;4998361;27;45289;-70
2022/03/24 05:59:53;;;;;;;;;32.00;24.25;;;;;14.11;33.97;102299.97;4996361;27;45948;-73
2022/03/24 06:02:20;;;;;;;;;39.00;32.50;;;;;14.10;33.95;102299.09;4996304;27;45419;-73
2022/03/24 06:04:48;;;;;;;;;43.00;32.25;;;;;14.10;34.37;102295.59;4996672;27;45393;-72
2022/03/24 06:07:17;;;;;;;;;36.00;31.25;;;;;14.15;34.04;102307.94;4996851;27;45216;-72
2022/03/24 06:09:45;;;;;;;;;37.00;30.75;;;;;14.19;34.27;102314.16;4996264;27;46123;-72
2022/03/24 06:12:13;;;;;;;;;36.25;32.25;;;;;14.10;34.47;102295.59;4996507;27;45362;-74
2022/03/24 06:14:42;;;;;;;;;36.25;34.50;;;;;14.26;34.03;102312.44;4996228;27;45237;-74
2022/03/24 06:17:09;;;;;;;;;35.00;32.25;;;;;14.27;34.51;102314.22;4996653;27;45418;-73
2022/03/24 06:19:36;;;;;;;;;43.50;33.00;;;;;14.31;34.49;102319.56;4995635;27;45497;-73
2022/03/24 06:22:03;;;;;;;;;44.50;33.50;;;;;14.11;34.64;102281.53;4995589;27;45527;-73
2022/03/24 06:24:32;;;;;;;;;37.25;33.75;;;;;14.28;34.52;102311.59;4995655;27;45514;-72
2022/03/24 06:26:59;;;;;;;;;42.50;33.25;;;;;14.18;34.53;102286.88;4995837;27;45732;-72
2022/03/24 06:29:24;;;;;;;;;37.00;34.00;;;;;14.21;35.06;102304.47;4995494;27;46076;-72
2022/03/24 06:31:50;;;;;;;;;45.00;32.25;;;;;14.35;34.86;102318.72;4977990;28;45470;-74
2022/03/24 06:34:16;;;;;;;;;45.50;34.50;;;;;14.35;35.03;102312.56;4996224;27;45481;-72
2022/03/24 06:36:42;;;;;;;;;41.75;34.25;;;;;14.33;34.68;102315.19;4978538;28;45531;-71
2022/03/24 06:39:08;;;;;;;;;43.25;34.25;;;;;14.46;34.82;102316.22;4995426;27;45315;-73
2022/03/24 06:41:35;;;;;;;;;52.50;39.50;;;;;14.55;34.63;102318.09;4995575;27;45405;-73
2022/03/24 06:44:01;;;;;;;;;36.25;29.75;;;;;14.61;34.66;102315.50;4995533;28;45248;-73
2022/03/24 06:46:27;;;;;;;;;37.25;31.75;;;;;14.69;34.98;102315.59;4996020;28;45356;-73
2022/03/24 06:48:54;;;;;;;;;43.00;33.75;;;;;14.73;35.09;102306.84;4995435;27;46388;-71
2022/03/24 06:51:20;;;;;;;;;46.00;33.25;;;;;14.74;35.01;102295.44;4995767;27;45928;-74
2022/03/24 06:53:46;;;;;;;;;45.25;34.25;;;;;14.78;34.93;102292.84;4977261;28;45421;-73
2022/03/24 06:56:11;;;;;;;;;39.00;31.00;;;;;14.87;34.43;102297.31;4995770;27;45264;-74
2022/03/24 06:58:37;;;;;;;;;49.00;36.50;;;;;14.97;34.55;102301.81;4995221;27;46161;-72
2022/03/24 07:01:03;;;;;;;;;39.50;32.75;;;;;15.08;34.66;102308.94;4977602;28;45560;-71
2022/03/24 07:03:29;;;;;;;;;43.50;34.25;;;;;15.17;34.64;102320.44;4995275;27;45283;-74
2022/03/24 07:05:55;;;;;;;;;36.75;33.25;;;;;15.28;33.67;102325.81;4995530;28;45399;-72
2022/03/24 07:08:22;;;;;;;;;44.00;34.00;;;;;15.37;33.60;102327.63;4995355;27;45311;-73
2022/03/24 07:10:50;;;;;;;;;46.00;36.75;;;;;15.33;33.62;102308.25;4995067;27;45401;-71
2022/03/24 07:13:16;;;;;;;;;50.75;41.00;;;;;15.54;33.68;102325.09;4993861;27;45522;-72
2022/03/24 07:15:41;;;;;;;;;47.25;38.00;;;;;15.62;33.35;102326.94;4995375;27;45771;-73
2022/03/24 07:18:07;;;;;;;;;47.25;37.00;;;;;15.71;33.14;102328.78;4994834;27;45407;-75
2022/03/24 07:20:34;;;;;;;;;39.25;32.75;;;;;15.73;32.70;102318.22;4994760;27;45527;-74
2022/03/24 07:23:02;;;;;;;;;41.25;35.50;;;;;15.83;32.90;102322.69;4994767;27;45511;-73
2022/03/24 07:25:32;;;;;;;;;47.00;36.00;;;;;15.86;33.51;102320.06;4995315;27;45488;-73
2022/03/24 07:27:58;;;;;;;;;41.75;37.00;;;;;15.94;32.75;102323.63;4994880;27;46303;-72
2022/03/24 07:30:24;;;;;;;;;30.00;30.00;;;;;15.97;32.87;102318.38;4994808;27;45409;-71
2022/03/24 07:32:49;;;;;;;;;49.50;37.75;;;;;16.00;33.03;102321.03;4995086;27;45277;-72
2022/03/24 07:35:18;;;;;;;;;53.25;39.25;;;;;15.92;32.54;102325.38;4995188;27;45860;-69
2022/03/24 07:37:47;;;;;;;;;52.75;41.25;;;;;15.81;32.83;102314.75;4994672;27;45393;-71
2022/03/24 07:40:14;;;;;;;;;49.50;39.25;;;;;15.89;33.08;102323.59;4994864;27;45753;-71
2022/03/24 07:42:42;;;;;;;;;49.25;38.50;;;;;15.99;31.72;102336.84;4996883;27;45342;-76
2022/03/24 07:45:12;;;;;;;;;49.25;35.75;;;;;15.87;31.80;102329.75;4979033;28;45583;-68
2022/03/24 07:48:17;;;;;;;;;44.75;34.25;;;;;15.66;31.36;102320.81;4994633;27;45697;-73
2022/03/24 07:50:46;;;;;;;;;43.00;33.25;;;;;15.71;31.36;102331.44;4976747;27;46041;-75
2022/03/24 07:53:12;;;;;;;;;46.00;34.75;;;;;15.77;31.53;102338.50;4994996;27;45484;-73
2022/03/24 07:55:38;;;;;;;;;44.00;32.00;;;;;15.77;31.37;102346.44;4994812;27;46313;-74
2022/03/24 07:58:05;;;;;;;;;44.50;35.00;;;;;15.79;31.75;102349.97;4976731;28;45488;-73
2022/03/24 08:00:31;;;;;;;;;37.25;33.25;;;;;15.82;31.54;102342.94;4994495;27;45474;-70
2022/03/24 08:03:06;;;;;;;;;40.25;32.25;;;;;15.77;31.34;102325.28;4976829;27;45258;-72
2022/03/24 08:05:35;;;;;;;;;48.50;35.50;;;;;16.02;30.63;102348.34;4994534;27;45382;-73
2022/03/24 08:08:03;;;;;;;;;42.00;32.75;;;;;16.03;30.30;102346.56;4994348;27;45383;-70
2022/03/24 08:10:29;;;;;;;;;38.00;28.50;;;;;15.97;30.14;102321.00;4994090;27;45363;-74
2022/03/24 08:12:54;;;;;;;;;35.50;30.50;;;;;16.19;30.48;102345.78;4994274;27;45374;-70
2022/03/24 08:15:20;;;;;;;;;41.75;32.50;;;;;16.34;30.26;102347.59;4995036;27;45506;-74
2022/03/24 08:17:46;;;;;;;;;29.75;26.25;;;;;16.47;30.09;102353.81;4994310;27;46042;-73
2022/03/24 08:20:11;;;;;;;;;43.75;35.25;;;;;16.50;29.42;102353.81;4994283;28;45395;-72
2022/03/24 08:22:38;;;;;;;;;35.00;32.25;;;;;16.47;29.30;102359.13;4994547;28;45434;-74
2022/03/24 08:25:08;;;;;;;;;36.75;32.00;;;;;16.44;29.91;102343.22;4994538;28;45514;-73
2022/03/24 08:27:34;;;;;;;;;38.25;33.25;;;;;16.59;29.31;102356.50;4976407;28;45582;-73
2022/03/24 08:30:00;;;;;;;;;40.75;33.25;;;;;16.51;28.97;102337.97;4993942;27;45482;-73
2022/03/24 08:32:26;;;;;;;;;39.50;32.00;;;;;16.73;29.06;102353.91;4976687;28;45512;-69
2022/03/24 08:34:52;;;;;;;;;31.25;26.75;;;;;16.75;28.68;102358.31;4994744;27;45397;-73
2022/03/24 08:37:17;;;;;;;;;46.50;35.25;;;;;16.77;28.80;102357.41;4994119;27;46377;-72
2022/03/24 08:39:44;;;;;;;;;37.25;31.00;;;;;16.72;28.23;102352.09;4994079;27;45247;-73
2022/03/24 08:42:10;;;;;;;;;43.50;34.75;;;;;16.78;28.84;102360.06;4994326;28;45311;-72
2022/03/24 08:44:35;;;;;;;;;44.75;36.00;;;;;16.84;28.47;102367.16;4994237;27;45294;-74
2022/03/24 08:47:01;;;;;;;;;45.75;37.50;;;;;16.75;28.67;102360.97;4993997;27;45852;-73
2022/03/24 08:49:27;;;;;;;;;36.25;33.50;;;;;16.68;28.34;102363.56;4994008;27;45347;-72
2022/03/24 08:51:53;;;;;;;;;49.00;37.00;;;;;16.55;28.68;102344.13;4994048;27;45415;-73
2022/03/24 08:54:19;;;;;;;;;51.50;36.75;;;;;16.66;28.54;102362.69;4994086;27;45592;-72
2022/03/24 08:56:45;;;;;;;;;50.25;39.50;;;;;16.68;28.72;102369.75;4993743;28;45349;-74
2022/03/24 08:59:10;;;;;;;;;46.50;37.75;;;;;16.65;29.24;102371.50;4994024;28;45414;-73
2022/03/24 09:01:38;;;;;;;;;56.00;41.75;;;;;16.54;28.99;102358.25;4976363;28;45413;-71
2022/03/24 09:04:03;;;;;;;;;50.25;37.50;;;;;16.71;29.05;102375.03;4976179;28;45507;-71
2022/03/24 09:06:29;;;;;;;;;50.25;39.00;;;;;16.79;29.06;102374.22;4993371;27;45473;-72
2022/03/24 09:08:55;;;;;;;;;51.50;37.75;;;;;16.87;29.43;102368.06;4994311;28;45250;-71
2022/03/24 09:11:21;;;;;;;;;51.75;39.00;;;;;17.01;29.11;102365.41;4993815;27;45532;-71
2022/03/24 09:13:47;;;;;;;;;48.50;37.50;;;;;17.15;29.10;102366.31;4994088;27;45406;-73
2022/03/24 09:16:12;;;;;;;;;48.00;35.00;;;;;17.28;28.77;102364.56;4993746;27;47227;-74
2022/03/24 09:18:38;;;;;;;;;50.75;40.25;;;;;17.38;28.46;102376.03;4996451;27;45459;-74
2022/03/24 09:21:04;;;;;;;;;48.50;38.50;;;;;17.36;28.56;102368.09;4997361;28;45683;-71
2022/03/24 09:23:29;;;;;;;;;46.50;38.25;;;;;17.42;28.65;102371.66;4997159;27;45525;-71
2022/03/24 09:25:56;;;;;;;;;49.00;37.25;;;;;17.50;28.81;102370.72;4997228;28;45469;-72
2022/03/24 09:28:24;;;;;;;;;48.25;36.25;;;;;17.66;28.39;102366.31;4996551;27;45537;-70
2022/03/24 09:30:50;;;;;;;;;47.50;37.00;;;;;17.58;28.21;102331.88;4996122;27;45304;-71
2022/03/24 09:33:17;;;;;;;;;46.25;36.75;;;;;17.85;27.85;102371.63;4996584;27;45542;-72
2022/03/24 09:35:43;;;;;;;;;50.75;40.25;;;;;17.82;27.92;102361.00;4996006;27;45524;-68
2022/03/24 09:38:08;;;;;;;;;52.25;37.75;;;;;17.90;28.26;102359.22;4996148;27;45548;-68
2022/03/24 09:40:34;;;;;;;;;40.75;34.75;;;;;18.10;28.09;102372.41;4996199;27;45823;-70
2022/03/24 09:43:04;;;;;;;;;51.50;39.25;;;;;18.22;27.90;102367.06;4996749;27;45554;-71
2022/03/24 09:45:30;;;;;;;;;46.50;34.75;;;;;18.38;27.88;102362.59;4996190;27;45484;-71
2022/03/24 09:47:56;;;;;;;;;43.50;34.50;;;;;18.49;28.13;102366.06;4978876;27;45338;-74
2022/03/24 09:50:24;;;;;;;;;41.25;35.25;;;;;18.62;27.83;102357.16;4996241;27;45389;-73
2022/03/24 09:52:51;;;;;;;;;41.25;36.25;;;;;18.78;27.73;102365.06;4996658;27;45881;-74
2022/03/24 09:55:17;;;;;;;;;47.00;37.50;;;;;18.88;27.12;102358.78;4996165;27;46273;-73
2022/03/24 09:57:43;;;;;;;;;52.00;38.25;;;;;18.87;26.98;102342.91;4996253;27;45421;-74
2022/03/24 10:00:10;;;;;;;;;50.25;37.50;;;;;18.99;26.99;102356.09;4995982;27;45474;-75
2022/03/24 10:02:36;;;;;;;;;46.00;35.50;;;;;18.99;26.80;102345.47;4996237;27;45638;-74
2022/03/24 10:05:03;;;;;;;;;39.75;29.25;;;;;19.14;26.69;102353.28;4977797;28;45455;-69
2022/03/24 10:07:34;;;;;;;;;45.25;38.25;;;;;19.19;26.45;102339.97;4996305;27;45473;-74
2022/03/24 10:10:02;;;;;;;;;43.00;35.00;;;;;19.34;26.53;102357.56;4996093;27;45357;-72
2022/03/24 10:12:28;;;;;;;;;40.25;31.75;;;;;19.46;26.45;102350.38;4978781;28;45492;-71
2022/03/24 10:15:15;;;;;;;;;43.00;31.75;;;;;19.51;26.33;102337.03;4996159;27;45508;-74
2022/03/24 10:17:50;;;;;;;;;48.25;35.25;;;;;19.58;25.98;102329.91;4996136;27;45378;-74
2022/03/24 10:20:16;;;;;;;;;45.25;34.50;;;;;19.67;26.02;102343.97;4996109;27;45456;-72
2022/03/24 10:22:58;;;;;;;;;48.25;35.25;;;;;19.67;25.53;102343.97;4996100;27;45708;-72
2022/03/24 10:25:31;;;;;;;;;48.75;36.50;;;;;19.59;25.62;102332.53;4998297;27;46397;-72
2022/03/24 10:28:19;;;;;;;;;43.00;35.25;;;;;19.69;26.05;102339.56;4995472;27;45489;-73
2022/03/24 10:31:05;;;;;;;;;46.00;36.00;;;;;19.76;25.93;102334.16;4997869;28;45372;-73
2022/03/24 10:33:37;;;;;;;;;42.25;33.25;;;;;19.81;26.91;102334.97;4997511;27;45382;-73
2022/03/24 10:36:10;;;;;;;;;47.25;33.75;;;;;20.01;27.20;102340.97;4996868;27;46115;-72
2022/03/24 10:38:39;;;;;;;;;41.75;35.00;;;;;20.13;26.49;102334.63;4995757;27;45262;-75
2022/03/24 10:41:16;;;;;;;;;40.50;31.25;;;;;20.22;26.58;102326.53;4995659;27;45541;-72
2022/03/24 10:43:42;;;;;;;;;49.00;35.75;;;;;20.28;25.90;102338.84;4997131;28;45418;-73
2022/03/24 10:46:23;;;;;;;;;41.00;34.50;;;;;20.29;25.74;102333.53;4998422;27;45676;-74
2022/03/24 10:48:50;;;;;;;;;29.25;21.25;;;;;20.37;25.85;102328.09;4999182;27;45430;-73
2022/03/24 10:51:31;;;;;;;;;46.00;36.50;;;;;20.37;25.58;102316.56;4999720;27;45458;-75
2022/03/24 10:54:15;;;;;;;;;44.00;34.75;;;;;20.58;25.17;102329.59;4999896;27;45370;-74
2022/03/24 10:56:46;;;;;;;;;40.75;32.50;;;;;20.62;25.65;102315.38;5000198;27;46239;-71
2022/03/24 10:59:12;;;;;;;;;46.25;36.00;;;;;20.78;24.73;102320.44;4999157;27;45252;-70
2022/03/24 11:01:38;;;;;;;;;44.75;33.75;;;;;20.71;25.22;102293.03;4999115;27;45429;-72
2022/03/24 11:04:04;;;;;;;;;48.50;36.50;;;;;21.12;24.86;102327.00;4997889;27;45425;-73
2022/03/24 11:06:30;;;;;;;;;47.50;35.75;;;;;21.31;24.73;102316.91;4995974;28;45352;-73
2022/03/24 11:09:01;;;;;;;;;42.75;35.75;;;;;21.52;24.56;102317.44;4995747;28;45414;-73
2022/03/24 11:11:28;;;;;;;;;39.75;31.50;;;;;21.67;24.65;102305.63;4978311;28;45509;-72
2022/03/24 11:14:02;;;;;;;;;39.00;32.50;;;;;22.03;23.35;102326.19;4978361;28;45202;-74
2022/03/24 11:16:34;;;;;;;;;41.00;30.67;;;;;22.23;23.55;102322.25;4995353;28;45325;-73